Time;durP1;ratioP1;P1;durP2;ratioP2;P2;SDS_P1;SDS_P2;PMS_P1;PMS_P2;Temp;Humidity;BMP_temperature;BMP_pressure;BME280_temperature;BME280_humidity;BME280_pressure;Samples;Min_cycle;Max_cycle;Signal;HPM_P1;HPM_P2
2024/02/16 00:02:01;;;;;;;11.80;11.50;;;;;;;;;;5012649;28;20972;-71
2024/02/16 00:04:28;;;;;;;11.80;11.50;;;;;;;;;;5021010;28;20489;-72
2024/02/16 00:06:55;;;;;;;13.00;12.60;;;;;;;;;;5015747;28;20789;-71
2024/02/16 00:09:22;;;;;;;12.80;12.40;;;;;;;;;;5026363;28;20463;-71
2024/02/16 00:11:52;;;;;;;12.40;12.10;;;;;;;;;;5012132;28;20458;-69
2024/02/16 00:14:20;;;;;;;11.97;11.67;;;;;;;;;;5038445;28;20453;-71
2024/02/16 00:16:49;;;;;;;12.57;12.20;;;;;;;;;;5020569;28;20464;-71
2024/02/16 00:19:17;;;;;;;12.50;12.17;;;;;;;;;;5014683;28;20552;-71
2024/02/16 00:21:44;;;;;;;12.00;11.70;;;;;;;;;;5047081;28;20954;-71
2024/02/16 00:24:12;;;;;;;12.60;12.20;;;;;;;;;;5048766;28;20459;-69
2024/02/16 00:26:39;;;;;;;12.10;11.80;;;;;;;;;;5015368;28;20497;-70
2024/02/16 00:29:08;;;;;;;12.57;12.17;;;;;;;;;;5025728;28;20453;-70
2024/02/16 00:31:35;;;;;;;12.10;11.80;;;;;;;;;;5012108;28;20588;-71
2024/02/16 00:34:04;;;;;;;11.80;11.50;;;;;;;;;;5020597;28;20548;-70
2024/02/16 00:36:34;;;;;;;12.37;12.07;;;;;;;;;;5021550;28;20852;-71
2024/02/16 00:39:01;;;;;;;12.50;12.10;;;;;;;;;;5020835;28;20472;-71
2024/02/16 00:41:28;;;;;;;12.20;11.90;;;;;;;;;;5026213;28;20463;-71
2024/02/16 00:43:56;;;;;;;12.10;11.80;;;;;;;;;;5018070;28;20481;-70
2024/02/16 00:46:23;;;;;;;12.07;11.77;;;;;;;;;;5024734;28;20492;-72
2024/02/16 00:48:51;;;;;;;12.40;12.07;;;;;;;;;;5021972;28;20563;-71
2024/02/16 00:51:19;;;;;;;12.70;12.30;;;;;;;;;;5024350;28;20475;-69
2024/02/16 00:53:46;;;;;;;12.97;12.57;;;;;;;;;;5021554;28;20838;-71
2024/02/16 00:56:14;;;;;;;12.10;11.80;;;;;;;;;;5026054;28;20511;-70
2024/02/16 00:58:42;;;;;;;12.70;12.30;;;;;;;;;;5002033;28;20470;-72
2024/02/16 01:01:11;;;;;;;12.07;11.77;;;;;;;;;;4977298;28;20841;-71
2024/02/16 01:03:38;;;;;;;12.63;12.23;;;;;;;;;;4981959;27;20466;-71
2024/02/16 01:06:05;;;;;;;12.87;12.47;;;;;;;;;;4982902;28;20497;-71
2024/02/16 01:08:34;;;;;;;12.17;11.87;;;;;;;;;;4981444;27;20469;-73
2024/02/16 01:11:01;;;;;;;12.30;12.00;;;;;;;;;;4982084;28;20469;-69
2024/02/16 01:13:28;;;;;;;12.37;12.07;;;;;;;;;;4984071;27;20477;-70
2024/02/16 01:15:55;;;;;;;12.23;11.93;;;;;;;;;;4982456;28;20530;-71
2024/02/16 01:18:23;;;;;;;12.30;12.00;;;;;;;;;;4983078;27;20503;-71
2024/02/16 01:20:49;;;;;;;12.33;12.03;;;;;;;;;;4983301;28;20476;-71
2024/02/16 01:23:16;;;;;;;12.07;11.77;;;;;;;;;;4982640;27;20465;-71
2024/02/16 01:25:46;;;;;;;11.80;11.50;;;;;;;;;;4982686;27;21218;-70
2024/02/16 01:28:13;;;;;;;12.37;12.03;;;;;;;;;;4981708;28;20982;-69
2024/02/16 01:30:40;;;;;;;13.10;12.70;;;;;;;;;;4983268;28;20465;-72
2024/02/16 01:33:08;;;;;;;12.57;12.17;;;;;;;;;;4981469;28;20470;-71
2024/02/16 01:35:35;;;;;;;12.60;12.20;;;;;;;;;;4981834;27;20471;-71
2024/02/16 01:38:02;;;;;;;13.10;12.70;;;;;;;;;;4981282;28;21164;-70
2024/02/16 01:40:29;;;;;;;12.63;12.23;;;;;;;;;;4982919;27;21208;-73
2024/02/16 01:42:58;;;;;;;12.90;12.50;;;;;;;;;;4980680;27;20896;-71
2024/02/16 01:45:25;;;;;;;13.30;12.90;;;;;;;;;;4984029;27;20873;-71
2024/02/16 01:47:53;;;;;;;16.80;16.10;;;;;;;;;;4983991;28;21085;-70
2024/02/16 01:50:20;;;;;;;21.50;20.20;;;;;;;;;;4981468;27;20472;-71
2024/02/16 01:52:49;;;;;;;22.57;21.10;;;;;;;;;;4981535;28;20497;-70
2024/02/16 01:55:19;;;;;;;21.97;20.57;;;;;;;;;;4980374;27;20468;-70
2024/02/16 01:57:47;;;;;;;21.60;20.20;;;;;;;;;;4986175;27;20462;-71
2024/02/16 02:00:17;;;;;;;21.60;20.20;;;;;;;;;;5027554;27;20566;-72
2024/02/16 02:02:46;;;;;;;21.10;19.80;;;;;;;;;;5024879;27;20555;-71
2024/02/16 02:05:14;;;;;;;21.00;19.70;;;;;;;;;;5018301;27;20519;-73
2024/02/16 02:07:42;;;;;;;20.40;19.20;;;;;;;;;;5022581;27;20624;-71
2024/02/16 02:10:12;;;;;;;20.00;18.80;;;;;;;;;;5018633;27;20557;-71
2024/02/16 02:12:39;;;;;;;20.27;19.07;;;;;;;;;;5027023;27;20577;-71
2024/02/16 02:15:06;;;;;;;20.43;19.23;;;;;;;;;;5021846;27;20475;-72
2024/02/16 02:17:35;;;;;;;20.57;19.37;;;;;;;;;;5020768;28;20467;-73
2024/02/16 02:20:03;;;;;;;19.60;18.50;;;;;;;;;;5026232;27;20813;-71
2024/02/16 02:22:32;;;;;;;18.93;17.87;;;;;;;;;;5025957;28;20463;-71
2024/02/16 02:24:59;;;;;;;19.60;18.50;;;;;;;;;;5022347;27;20514;-71
2024/02/16 02:27:26;;;;;;;19.60;18.50;;;;;;;;;;5017035;27;20499;-71
2024/02/16 02:29:54;;;;;;;19.60;18.50;;;;;;;;;;5028058;27;20981;-71
2024/02/16 02:32:21;;;;;;;18.93;17.93;;;;;;;;;;5012651;27;20480;-71
2024/02/16 02:34:48;;;;;;;19.10;18.10;;;;;;;;;;5028028;27;20461;-72
2024/02/16 02:37:15;;;;;;;18.40;17.40;;;;;;;;;;5022894;27;20499;-72
2024/02/16 02:39:44;;;;;;;19.20;18.20;;;;;;;;;;5027653;28;20470;-71
2024/02/16 02:42:11;;;;;;;18.90;17.90;;;;;;;;;;5022520;27;20471;-72
2024/02/16 02:44:38;;;;;;;18.73;17.73;;;;;;;;;;5020777;27;20463;-72
2024/02/16 02:47:06;;;;;;;18.67;17.67;;;;;;;;;;5021747;27;20757;-71
2024/02/16 02:49:34;;;;;;;18.60;17.60;;;;;;;;;;5022174;27;20467;-73
2024/02/16 02:52:02;;;;;;;18.83;17.83;;;;;;;;;;5019535;27;20886;-71
2024/02/16 02:54:29;;;;;;;18.00;17.10;;;;;;;;;;5020984;28;20526;-73
2024/02/16 02:56:58;;;;;;;18.20;17.30;;;;;;;;;;5022708;27;20467;-72
2024/02/16 02:59:25;;;;;;;18.00;17.10;;;;;;;;;;5027969;28;20461;-73
2024/02/16 03:01:52;;;;;;;18.00;17.10;;;;;;;;;;5021580;27;20470;-73
2024/02/16 03:04:20;;;;;;;17.77;16.97;;;;;;;;;;5021104;27;20965;-71
2024/02/16 03:06:47;;;;;;;17.20;16.40;;;;;;;;;;5019575;27;20503;-71
2024/02/16 03:09:14;;;;;;;16.93;16.13;;;;;;;;;;5035180;27;20454;-71
2024/02/16 03:11:41;;;;;;;16.90;16.13;;;;;;;;;;5014374;28;20499;-72
2024/02/16 03:14:11;;;;;;;16.30;15.60;;;;;;;;;;5016840;27;20796;-72
2024/02/16 03:16:38;;;;;;;16.20;15.50;;;;;;;;;;5023790;27;20467;-71
2024/02/16 03:19:08;;;;;;;15.50;14.90;;;;;;;;;;5022733;27;20471;-71
2024/02/16 03:21:35;;;;;;;15.80;15.20;;;;;;;;;;5014384;27;20497;-73
2024/02/16 03:24:03;;;;;;;15.27;14.67;;;;;;;;;;5024660;28;20459;-73
2024/02/16 03:26:32;;;;;;;15.07;14.47;;;;;;;;;;5026085;27;20479;-71
2024/02/16 03:28:59;;;;;;;15.20;14.60;;;;;;;;;;5019291;27;20472;-71
2024/02/16 03:31:28;;;;;;;14.83;14.23;;;;;;;;;;5022575;28;20460;-72
2024/02/16 03:33:57;;;;;;;14.63;14.13;;;;;;;;;;5018294;28;20837;-72
2024/02/16 03:36:24;;;;;;;14.40;13.90;;;;;;;;;;5049404;27;20462;-73
2024/02/16 03:38:51;;;;;;;14.00;13.50;;;;;;;;;;5026139;28;20470;-71
2024/02/16 03:41:20;;;;;;;14.30;13.80;;;;;;;;;;5012340;27;20482;-72
2024/02/16 03:43:47;;;;;;;13.53;13.10;;;;;;;;;;5023344;28;20552;-71
2024/02/16 03:46:15;;;;;;;13.17;12.77;;;;;;;;;;5025013;28;20489;-71
2024/02/16 03:48:44;;;;;;;13.17;12.77;;;;;;;;;;5023791;28;20467;-71
2024/02/16 03:51:11;;;;;;;13.20;12.80;;;;;;;;;;5023370;28;20459;-73
2024/02/16 03:53:38;;;;;;;13.20;12.80;;;;;;;;;;5016254;28;20473;-72
2024/02/16 03:56:07;;;;;;;13.20;12.80;;;;;;;;;;5017757;28;20761;-72
2024/02/16 03:58:35;;;;;;;12.60;12.20;;;;;;;;;;5021708;28;21010;-73
2024/02/16 04:01:02;;;;;;;12.70;12.30;;;;;;;;;;5026809;28;20460;-72
2024/02/16 04:03:29;;;;;;;11.97;11.67;;;;;;;;;;5049190;28;21031;-71
2024/02/16 04:05:59;;;;;;;12.10;11.80;;;;;;;;;;5013389;28;20975;-72
2024/02/16 04:08:26;;;;;;;12.00;11.70;;;;;;;;;;5016707;28;20473;-72
2024/02/16 04:10:53;;;;;;;12.40;12.00;;;;;;;;;;5022968;28;20462;-73
2024/02/16 04:13:21;;;;;;;11.60;11.30;;;;;;;;;;5020842;28;20460;-71
2024/02/16 04:15:48;;;;;;;11.70;11.40;;;;;;;;;;5024775;28;20479;-73
2024/02/16 04:18:15;;;;;;;11.83;11.53;;;;;;;;;;5025642;28;20464;-71
2024/02/16 04:20:42;;;;;;;11.53;11.23;;;;;;;;;;5019824;28;20973;-71
2024/02/16 04:23:11;;;;;;;11.47;11.17;;;;;;;;;;5016296;28;20478;-71
2024/02/16 04:25:38;;;;;;;11.43;11.13;;;;;;;;;;5019317;28;21005;-71
2024/02/16 04:28:06;;;;;;;11.40;11.10;;;;;;;;;;5015087;28;20499;-72
2024/02/16 04:30:33;;;;;;;11.20;10.90;;;;;;;;;;5024672;28;20464;-71
2024/02/16 04:33:01;;;;;;;11.60;11.30;;;;;;;;;;5018863;28;20467;-73
2024/02/16 04:35:28;;;;;;;11.23;10.93;;;;;;;;;;5018560;28;20476;-72
2024/02/16 04:37:55;;;;;;;10.77;10.47;;;;;;;;;;5026354;27;20488;-72
2024/02/16 04:40:24;;;;;;;10.57;10.30;;;;;;;;;;5024024;27;20482;-71
2024/02/16 04:42:51;;;;;;;11.10;10.80;;;;;;;;;;5025045;27;20555;-72
2024/02/16 04:45:18;;;;;;;10.90;10.60;;;;;;;;;;5034456;27;20962;-71
2024/02/16 04:47:45;;;;;;;10.73;10.43;;;;;;;;;;5023461;27;20491;-71
2024/02/16 04:50:13;;;;;;;10.90;10.60;;;;;;;;;;5018835;28;20475;-73
2024/02/16 04:52:41;;;;;;;10.57;10.37;;;;;;;;;;5027097;27;20471;-72
2024/02/16 04:55:08;;;;;;;10.30;10.10;;;;;;;;;;5025537;27;20479;-71
2024/02/16 04:57:37;;;;;;;10.40;10.20;;;;;;;;;;5028797;27;20463;-72
2024/02/16 05:00:04;;;;;;;10.20;10.00;;;;;;;;;;5028960;27;20468;-72
2024/02/16 05:02:32;;;;;;;10.80;10.50;;;;;;;;;;5005861;28;20846;-71
2024/02/16 05:04:59;;;;;;;10.70;10.40;;;;;;;;;;5018958;27;21001;-72
2024/02/16 05:07:26;;;;;;;11.30;11.00;;;;;;;;;;5015153;27;20499;-73
2024/02/16 05:09:57;;;;;;;11.03;10.73;;;;;;;;;;5014368;27;20459;-71
2024/02/16 05:12:24;;;;;;;10.77;10.47;;;;;;;;;;5021294;27;20465;-71
2024/02/16 05:14:53;;;;;;;11.10;10.80;;;;;;;;;;5027223;27;20468;-71
2024/02/16 05:17:22;;;;;;;11.43;11.13;;;;;;;;;;5021740;27;20886;-72
2024/02/16 05:19:49;;;;;;;11.70;11.40;;;;;;;;;;5016230;27;21076;-71
2024/02/16 05:22:19;;;;;;;11.73;11.43;;;;;;;;;;5024348;27;20517;-71
2024/02/16 05:24:46;;;;;;;11.20;10.90;;;;;;;;;;5027250;27;20949;-71
2024/02/16 05:27:13;;;;;;;11.70;11.40;;;;;;;;;;5023256;27;20933;-71
2024/02/16 05:29:40;;;;;;;11.20;10.90;;;;;;;;;;5017904;27;20480;-72
2024/02/16 05:32:10;;;;;;;11.67;11.37;;;;;;;;;;5025970;27;20452;-72
2024/02/16 05:34:39;;;;;;;10.80;10.50;;;;;;;;;;5018761;27;20460;-73
2024/02/16 05:37:07;;;;;;;11.00;10.70;;;;;;;;;;5026826;28;20765;-72
2024/02/16 05:39:35;;;;;;;11.30;11.00;;;;;;;;;;5016178;28;20475;-71
2024/02/16 05:42:03;;;;;;;11.00;10.70;;;;;;;;;;5024027;27;20452;-71
2024/02/16 05:44:32;;;;;;;11.10;10.80;;;;;;;;;;5028738;27;20549;-73
2024/02/16 05:46:59;;;;;;;11.20;10.90;;;;;;;;;;5026757;27;20512;-72
2024/02/16 05:49:30;;;;;;;10.87;10.57;;;;;;;;;;5018951;28;20507;-72
2024/02/16 05:54:44;;;;;;;11.03;10.73;;;;;;;;;;5012580;27;20456;-72
2024/02/16 05:57:12;;;;;;;11.40;11.10;;;;;;;;;;5026577;28;20826;-72
2024/02/16 05:59:39;;;;;;;11.20;10.90;;;;;;;;;;5019632;27;20483;-72
2024/02/16 06:02:08;;;;;;;11.33;11.03;;;;;;;;;;5021178;27;20466;-73
2024/02/16 06:04:37;;;;;;;11.20;10.90;;;;;;;;;;5013666;27;20942;-72
2024/02/16 06:07:04;;;;;;;11.10;10.80;;;;;;;;;;5021582;27;20890;-72
2024/02/16 06:09:34;;;;;;;11.70;11.40;;;;;;;;;;5016474;27;20471;-72
2024/02/16 06:12:04;;;;;;;11.63;11.33;;;;;;;;;;5018529;27;20614;-72
2024/02/16 06:14:32;;;;;;;11.10;10.80;;;;;;;;;;5014594;27;20464;-71
2024/02/16 06:16:59;;;;;;;11.30;11.00;;;;;;;;;;5027065;27;20971;-72
2024/02/16 06:19:26;;;;;;;11.17;10.87;;;;;;;;;;5011781;27;20460;-72
2024/02/16 06:21:55;;;;;;;11.00;10.70;;;;;;;;;;5020550;27;20460;-71
2024/02/16 06:24:23;;;;;;;10.93;10.63;;;;;;;;;;5024541;28;20463;-72
2024/02/16 06:26:50;;;;;;;11.43;11.13;;;;;;;;;;5018654;27;20529;-72
2024/02/16 06:29:17;;;;;;;10.87;10.57;;;;;;;;;;5014744;27;20521;-73
2024/02/16 06:31:44;;;;;;;11.37;11.07;;;;;;;;;;5023089;27;20476;-71
2024/02/16 06:34:11;;;;;;;11.10;10.80;;;;;;;;;;5024724;27;20452;-72
2024/02/16 06:36:38;;;;;;;11.40;11.10;;;;;;;;;;5014462;27;20884;-72
2024/02/16 06:39:07;;;;;;;10.50;10.30;;;;;;;;;;5016960;27;20465;-71
2024/02/16 06:41:34;;;;;;;11.37;11.07;;;;;;;;;;5023370;27;21048;-72
2024/02/16 06:44:01;;;;;;;11.30;11.00;;;;;;;;;;5016785;27;20483;-73
2024/02/16 06:46:29;;;;;;;11.70;11.40;;;;;;;;;;5025124;27;20480;-72
2024/02/16 06:48:56;;;;;;;11.30;11.00;;;;;;;;;;5012369;28;20565;-72
2024/02/16 06:51:24;;;;;;;11.37;11.07;;;;;;;;;;5022124;28;20488;-72
2024/02/16 06:53:51;;;;;;;11.57;11.27;;;;;;;;;;5018636;27;20472;-72
2024/02/16 06:56:20;;;;;;;11.50;11.20;;;;;;;;;;5019046;27;20959;-73
2024/02/16 06:58:47;;;;;;;11.60;11.30;;;;;;;;;;5008714;27;20469;-71
2024/02/16 07:01:14;;;;;;;11.10;10.80;;;;;;;;;;5017840;27;20474;-73
2024/02/16 07:03:41;;;;;;;11.27;10.97;;;;;;;;;;5016688;28;20467;-72
2024/02/16 07:06:13;;;;;;;11.00;10.70;;;;;;;;;;5015815;27;21008;-71
2024/02/16 07:08:40;;;;;;;11.43;11.13;;;;;;;;;;5028145;27;20524;-73
2024/02/16 07:11:08;;;;;;;11.30;11.00;;;;;;;;;;5028574;27;20955;-71
2024/02/16 07:13:36;;;;;;;11.40;11.10;;;;;;;;;;5014003;28;20454;-72
2024/02/16 07:16:06;;;;;;;11.10;10.80;;;;;;;;;;5018089;27;20480;-72
2024/02/16 07:18:33;;;;;;;11.10;10.80;;;;;;;;;;5016891;27;20472;-72
2024/02/16 07:21:01;;;;;;;11.63;11.33;;;;;;;;;;5016189;27;20461;-72
2024/02/16 07:23:28;;;;;;;11.73;11.43;;;;;;;;;;5013346;27;21797;-73
2024/02/16 07:25:56;;;;;;;12.07;11.77;;;;;;;;;;5007849;27;21207;-72
2024/02/16 07:28:23;;;;;;;11.93;11.63;;;;;;;;;;5006219;28;20930;-72
2024/02/16 07:30:53;;;;;;;12.50;12.10;;;;;;;;;;5012365;28;20488;-72
2024/02/16 07:33:20;;;;;;;12.00;11.70;;;;;;;;;;5008463;27;20480;-73
2024/02/16 07:35:48;;;;;;;12.20;11.87;;;;;;;;;;5013693;27;20476;-73
2024/02/16 07:38:15;;;;;;;11.80;11.50;;;;;;;;;;5012331;27;20470;-71
2024/02/16 07:40:42;;;;;;;11.83;11.53;;;;;;;;;;5013310;28;20478;-71
2024/02/16 07:43:09;;;;;;;12.07;11.77;;;;;;;;;;5005395;28;20491;-71
2024/02/16 07:45:36;;;;;;;12.57;12.17;;;;;;;;;;5008969;28;21001;-72
2024/02/16 07:48:05;;;;;;;12.17;11.87;;;;;;;;;;5012685;27;20922;-74
2024/02/16 07:50:33;;;;;;;12.13;11.83;;;;;;;;;;5013990;28;20457;-73
2024/02/16 07:53:00;;;;;;;12.10;11.80;;;;;;;;;;5012589;28;20527;-71
2024/02/16 07:55:27;;;;;;;12.07;11.77;;;;;;;;;;5012958;28;20469;-72
2024/02/16 07:57:54;;;;;;;12.20;11.90;;;;;;;;;;5013769;28;20470;-73
2024/02/16 08:00:21;;;;;;;12.53;12.13;;;;;;;;;;5008698;28;21052;-73
2024/02/16 08:02:49;;;;;;;12.00;11.70;;;;;;;;;;5012095;28;21666;-72
2024/02/16 08:05:19;;;;;;;12.17;11.87;;;;;;;;;;5012317;28;20470;-72
2024/02/16 08:07:46;;;;;;;12.13;11.83;;;;;;;;;;5012262;28;20846;-72
2024/02/16 08:10:14;;;;;;;12.60;12.20;;;;;;;;;;5010132;28;20468;-73
2024/02/16 08:12:41;;;;;;;12.37;12.07;;;;;;;;;;5014680;27;20477;-72
2024/02/16 08:15:10;;;;;;;11.80;11.50;;;;;;;;;;5011110;27;20496;-72
2024/02/16 08:17:37;;;;;;;11.97;11.67;;;;;;;;;;5016655;27;20469;-72
2024/02/16 08:20:05;;;;;;;12.67;12.27;;;;;;;;;;5015283;28;20470;-73
2024/02/16 08:22:34;;;;;;;12.30;12.00;;;;;;;;;;5017045;27;21050;-71
2024/02/16 08:25:02;;;;;;;12.40;12.10;;;;;;;;;;5013435;28;20972;-72
2024/02/16 08:27:29;;;;;;;12.40;12.10;;;;;;;;;;5015898;27;20485;-71
2024/02/16 08:29:56;;;;;;;12.20;11.90;;;;;;;;;;5010613;28;20983;-72
2024/02/16 08:32:24;;;;;;;12.23;11.93;;;;;;;;;;5009566;27;20898;-72
2024/02/16 08:34:51;;;;;;;12.27;11.97;;;;;;;;;;5016035;27;20901;-71
2024/02/16 08:37:18;;;;;;;12.17;11.87;;;;;;;;;;5016807;27;20461;-71
2024/02/16 08:39:47;;;;;;;12.50;12.10;;;;;;;;;;5016195;27;20475;-73
2024/02/16 08:42:14;;;;;;;12.33;11.97;;;;;;;;;;5011497;27;20737;-72
2024/02/16 08:44:42;;;;;;;12.50;12.10;;;;;;;;;;5013871;27;20486;-72
2024/02/16 08:47:09;;;;;;;12.87;12.47;;;;;;;;;;5014966;27;20476;-71
2024/02/16 08:49:38;;;;;;;12.27;11.97;;;;;;;;;;5011040;27;20524;-70
2024/02/16 08:52:07;;;;;;;12.40;12.00;;;;;;;;;;5011862;27;21125;-71
2024/02/16 08:54:35;;;;;;;12.10;11.80;;;;;;;;;;5009863;28;20517;-71
2024/02/16 08:57:03;;;;;;;12.57;12.17;;;;;;;;;;5015896;27;20537;-72
2024/02/16 08:59:31;;;;;;;12.67;12.27;;;;;;;;;;5007768;27;20486;-70
2024/02/16 09:01:58;;;;;;;12.80;12.40;;;;;;;;;;5009192;28;20489;-71
2024/02/16 09:04:25;;;;;;;13.00;12.60;;;;;;;;;;5003396;28;20459;-72
2024/02/16 09:06:53;;;;;;;13.10;12.70;;;;;;;;;;5010952;27;20468;-73
2024/02/16 09:09:20;;;;;;;13.00;12.60;;;;;;;;;;5013279;27;20496;-71
2024/02/16 09:11:47;;;;;;;12.90;12.50;;;;;;;;;;5010554;28;20485;-71
2024/02/16 09:14:15;;;;;;;13.10;12.70;;;;;;;;;;5006729;28;20464;-71
2024/02/16 09:16:43;;;;;;;13.30;12.90;;;;;;;;;;5010564;27;20708;-73
2024/02/16 09:19:10;;;;;;;12.60;12.20;;;;;;;;;;5005647;28;20712;-71
2024/02/16 09:21:37;;;;;;;12.63;12.23;;;;;;;;;;5007126;27;20466;-70
2024/02/16 09:24:10;;;;;;;12.70;12.30;;;;;;;;;;5003696;28;20461;-70
2024/02/16 09:26:37;;;;;;;13.10;12.70;;;;;;;;;;5010872;27;20549;-71
2024/02/16 09:29:04;;;;;;;13.40;13.00;;;;;;;;;;5002935;27;20495;-72
2024/02/16 09:31:33;;;;;;;12.80;12.40;;;;;;;;;;5013731;27;20488;-72
2024/02/16 09:34:02;;;;;;;12.53;12.13;;;;;;;;;;5003506;28;20478;-72
2024/02/16 09:36:29;;;;;;;13.00;12.60;;;;;;;;;;5009778;27;20474;-72
2024/02/16 09:38:57;;;;;;;12.70;12.30;;;;;;;;;;5009779;28;20470;-70
2024/02/16 09:41:24;;;;;;;13.27;12.87;;;;;;;;;;5008467;28;20568;-72
2024/02/16 09:43:53;;;;;;;13.10;12.70;;;;;;;;;;5011014;27;20494;-71
2024/02/16 09:46:20;;;;;;;13.10;12.70;;;;;;;;;;5003652;28;20835;-72
2024/02/16 09:48:52;;;;;;;12.57;12.17;;;;;;;;;;5005911;27;20495;-71
2024/02/16 09:51:20;;;;;;;12.87;12.47;;;;;;;;;;5009727;28;20775;-73
2024/02/16 09:53:52;;;;;;;12.80;12.40;;;;;;;;;;5010312;27;20475;-71
2024/02/16 09:56:20;;;;;;;12.93;12.53;;;;;;;;;;5012844;28;20466;-72
2024/02/16 09:58:47;;;;;;;13.27;12.87;;;;;;;;;;5009137;27;20462;-72
2024/02/16 10:01:20;;;;;;;12.73;12.33;;;;;;;;;;5010860;28;20863;-70
2024/02/16 10:03:48;;;;;;;12.60;12.20;;;;;;;;;;5020587;27;20478;-71
2024/02/16 10:06:20;;;;;;;12.77;12.37;;;;;;;;;;5012643;27;20466;-72
2024/02/16 10:08:49;;;;;;;13.30;12.90;;;;;;;;;;5021102;27;21033;-71
2024/02/16 10:11:18;;;;;;;13.10;12.70;;;;;;;;;;5013310;27;20471;-71
2024/02/16 10:13:54;;;;;;;12.80;12.40;;;;;;;;;;5019817;27;20464;-71
2024/02/16 10:16:21;;;;;;;12.80;12.40;;;;;;;;;;5011932;27;20990;-71
2024/02/16 10:18:49;;;;;;;12.60;12.20;;;;;;;;;;4999828;27;20473;-71
2024/02/16 10:21:25;;;;;;;13.00;12.60;;;;;;;;;;5005759;27;20504;-72
2024/02/16 10:23:57;;;;;;;13.10;12.70;;;;;;;;;;5007175;27;20468;-73
2024/02/16 10:26:24;;;;;;;12.80;12.40;;;;;;;;;;5003426;27;20545;-72
2024/02/16 10:28:54;;;;;;;12.93;12.53;;;;;;;;;;5000004;28;20499;-71
2024/02/16 10:31:27;;;;;;;13.70;13.30;;;;;;;;;;5006117;27;20474;-71
2024/02/16 10:33:55;;;;;;;13.17;12.77;;;;;;;;;;5008632;27;20863;-73
2024/02/16 10:36:24;;;;;;;13.23;12.83;;;;;;;;;;5009089;28;20599;-71
2024/02/16 10:38:51;;;;;;;12.93;12.53;;;;;;;;;;5007842;28;20491;-72
2024/02/16 10:41:20;;;;;;;13.10;12.70;;;;;;;;;;5012546;27;20521;-71
2024/02/16 10:43:49;;;;;;;13.20;12.80;;;;;;;;;;5008164;27;21166;-71
2024/02/16 10:46:17;;;;;;;13.17;12.77;;;;;;;;;;5005473;28;20475;-72
2024/02/16 10:48:44;;;;;;;13.10;12.70;;;;;;;;;;5010713;28;20500;-72
2024/02/16 10:51:13;;;;;;;13.03;12.63;;;;;;;;;;5008241;28;20478;-74
2024/02/16 10:53:42;;;;;;;13.50;13.10;;;;;;;;;;5012211;27;20530;-72
2024/02/16 10:56:09;;;;;;;13.37;12.97;;;;;;;;;;5005957;28;20471;-72
2024/02/16 10:58:36;;;;;;;12.60;12.20;;;;;;;;;;5007817;27;21046;-72
2024/02/16 11:01:09;;;;;;;13.20;12.80;;;;;;;;;;5011566;28;20475;-73
2024/02/16 11:03:39;;;;;;;12.97;12.57;;;;;;;;;;5005734;27;20478;-72
2024/02/16 11:06:16;;;;;;;12.83;12.43;;;;;;;;;;5011410;28;20718;-72
2024/02/16 11:08:45;;;;;;;13.17;12.77;;;;;;;;;;5009365;27;20501;-73
2024/02/16 11:11:12;;;;;;;13.10;12.70;;;;;;;;;;5004685;28;20475;-71
2024/02/16 11:13:40;;;;;;;12.90;12.50;;;;;;;;;;5006286;28;20469;-72
2024/02/16 11:16:09;;;;;;;13.27;12.87;;;;;;;;;;5007339;28;20479;-74
2024/02/16 11:18:39;;;;;;;13.17;12.77;;;;;;;;;;5007059;27;20477;-72
2024/02/16 11:21:07;;;;;;;12.77;12.37;;;;;;;;;;5003766;28;20470;-71
2024/02/16 11:23:36;;;;;;;12.67;12.27;;;;;;;;;;5012639;28;20556;-72
2024/02/16 11:26:06;;;;;;;13.10;12.70;;;;;;;;;;5006863;28;21018;-72
2024/02/16 11:28:34;;;;;;;13.07;12.67;;;;;;;;;;5011467;28;20497;-72
2024/02/16 11:31:02;;;;;;;13.10;12.70;;;;;;;;;;5007186;27;20479;-72
2024/02/16 11:33:29;;;;;;;12.93;12.53;;;;;;;;;;5004988;27;20591;-72
2024/02/16 11:35:57;;;;;;;12.60;12.20;;;;;;;;;;5007280;28;20471;-72
2024/02/16 11:38:24;;;;;;;12.80;12.40;;;;;;;;;;5006646;27;20468;-71
2024/02/16 11:40:56;;;;;;;12.57;12.17;;;;;;;;;;5007814;28;20472;-72
2024/02/16 11:43:24;;;;;;;12.50;12.10;;;;;;;;;;5008699;28;20947;-72
2024/02/16 11:45:52;;;;;;;12.17;11.87;;;;;;;;;;5007231;28;20462;-72
2024/02/16 11:48:22;;;;;;;12.93;12.53;;;;;;;;;;5006100;28;20465;-72
2024/02/16 11:50:50;;;;;;;12.60;12.20;;;;;;;;;;5007168;28;20474;-72
2024/02/16 11:53:20;;;;;;;12.23;11.90;;;;;;;;;;5008227;28;20954;-72
2024/02/16 11:55:50;;;;;;;12.30;12.00;;;;;;;;;;5007864;28;20470;-72
2024/02/16 11:58:19;;;;;;;12.43;12.03;;;;;;;;;;5002357;28;20467;-72
2024/02/16 12:00:48;;;;;;;12.10;11.80;;;;;;;;;;5008216;28;20548;-72
2024/02/16 12:03:20;;;;;;;12.23;11.87;;;;;;;;;;5006607;28;20475;-72
2024/02/16 12:05:54;;;;;;;11.27;10.97;;;;;;;;;;4999129;28;20466;-73
2024/02/16 12:08:21;;;;;;;11.33;11.03;;;;;;;;;;5008369;28;20952;-72
2024/02/16 12:10:48;;;;;;;11.50;11.20;;;;;;;;;;5007941;28;20469;-72
2024/02/16 12:13:17;;;;;;;11.17;10.87;;;;;;;;;;5001433;28;20540;-72
2024/02/16 12:15:45;;;;;;;11.20;10.90;;;;;;;;;;4999040;28;20470;-71
2024/02/16 12:18:20;;;;;;;11.00;10.70;;;;;;;;;;5003725;28;20485;-72
2024/02/16 12:20:58;;;;;;;10.70;10.40;;;;;;;;;;5004299;28;20476;-72
2024/02/16 12:23:25;;;;;;;10.30;10.10;;;;;;;;;;5005253;28;20516;-72
2024/02/16 12:25:52;;;;;;;10.53;10.33;;;;;;;;;;5010664;28;20463;-71
2024/02/16 12:28:20;;;;;;;9.90;9.70;;;;;;;;;;4998578;28;20473;-72
2024/02/16 12:30:48;;;;;;;10.03;9.83;;;;;;;;;;5010059;28;20533;-74
2024/02/16 12:33:17;;;;;;;9.57;9.37;;;;;;;;;;5008352;28;20477;-72
2024/02/16 12:35:44;;;;;;;8.63;8.53;;;;;;;;;;5015224;28;20466;-71
2024/02/16 12:38:12;;;;;;;8.40;8.30;;;;;;;;;;5010657;28;20463;-71
2024/02/16 12:40:40;;;;;;;8.37;8.27;;;;;;;;;;5008676;28;20467;-72
2024/02/16 12:43:08;;;;;;;7.80;7.70;;;;;;;;;;5007458;28;20903;-72
2024/02/16 12:45:36;;;;;;;7.60;7.50;;;;;;;;;;5006203;28;20468;-72
2024/02/16 12:48:03;;;;;;;7.80;7.70;;;;;;;;;;5008854;28;20466;-72
2024/02/16 12:50:32;;;;;;;8.10;8.00;;;;;;;;;;5007581;28;20995;-71
2024/02/16 12:52:59;;;;;;;7.80;7.70;;;;;;;;;;5006770;28;20489;-72
2024/02/16 12:55:26;;;;;;;7.70;7.60;;;;;;;;;;5008339;28;20484;-72
2024/02/16 12:57:53;;;;;;;7.97;7.87;;;;;;;;;;5010675;27;20476;-72
2024/02/16 13:00:21;;;;;;;7.00;6.90;;;;;;;;;;5008432;28;20465;-72
2024/02/16 13:02:48;;;;;;;6.00;5.90;;;;;;;;;;5012147;28;20473;-72
2024/02/16 13:05:15;;;;;;;5.30;5.20;;;;;;;;;;5012827;27;20473;-72
2024/02/16 13:07:43;;;;;;;4.60;4.60;;;;;;;;;;5008608;28;20565;-71
2024/02/16 13:10:11;;;;;;;4.37;4.37;;;;;;;;;;5011670;27;20492;-73
2024/02/16 13:12:39;;;;;;;4.00;4.00;;;;;;;;;;5006312;27;20968;-71
2024/02/16 13:15:08;;;;;;;3.67;3.67;;;;;;;;;;5012300;27;20482;-73
2024/02/16 13:17:35;;;;;;;3.87;3.87;;;;;;;;;;5004118;28;21048;-72
2024/02/16 13:20:06;;;;;;;3.23;3.23;;;;;;;;;;5010043;28;21220;-71
2024/02/16 13:22:34;;;;;;;3.40;3.40;;;;;;;;;;5006830;28;21014;-72
2024/02/16 13:25:03;;;;;;;4.70;4.70;;;;;;;;;;5001845;27;20480;-71
2024/02/16 13:27:30;;;;;;;5.40;5.30;;;;;;;;;;5009769;28;20462;-72
2024/02/16 13:29:57;;;;;;;6.00;5.90;;;;;;;;;;5010087;27;20494;-71
2024/02/16 13:32:25;;;;;;;7.03;6.93;;;;;;;;;;5008861;28;20470;-72
2024/02/16 13:34:52;;;;;;;6.60;6.50;;;;;;;;;;5009060;28;20458;-71
2024/02/16 13:37:19;;;;;;;8.00;7.90;;;;;;;;;;5006696;27;20465;-72
2024/02/16 13:39:46;;;;;;;9.00;8.90;;;;;;;;;;5010607;28;20469;-73
2024/02/16 13:42:15;;;;;;;11.37;11.10;;;;;;;;;;5007533;28;20510;-71
2024/02/16 13:44:42;;;;;;;12.43;12.13;;;;;;;;;;5014417;27;20496;-70
2024/02/16 13:47:10;;;;;;;14.33;13.93;;;;;;;;;;5011771;28;20473;-70
2024/02/16 13:49:37;;;;;;;15.33;14.83;;;;;;;;;;5012691;27;20573;-70
2024/02/16 13:52:05;;;;;;;14.77;14.37;;;;;;;;;;5005495;28;20757;-70
2024/02/16 13:54:32;;;;;;;15.13;14.63;;;;;;;;;;5011387;28;20485;-70
2024/02/16 13:56:59;;;;;;;16.30;15.80;;;;;;;;;;5010810;27;21007;-71
2024/02/16 13:59:28;;;;;;;16.10;15.60;;;;;;;;;;5009664;27;20465;-73
2024/02/16 14:01:56;;;;;;;15.70;15.20;;;;;;;;;;5010148;28;20846;-71
2024/02/16 14:04:23;;;;;;;16.10;15.60;;;;;;;;;;5013399;27;21151;-72
2024/02/16 14:06:51;;;;;;;17.13;16.53;;;;;;;;;;5007560;28;20982;-71
2024/02/16 14:09:18;;;;;;;16.47;15.97;;;;;;;;;;5010838;27;20492;-70
2024/02/16 14:11:46;;;;;;;16.60;16.10;;;;;;;;;;5007534;27;20469;-72
2024/02/16 14:14:13;;;;;;;15.23;14.73;;;;;;;;;;5016336;27;20890;-75
2024/02/16 14:16:43;;;;;;;15.80;15.30;;;;;;;;;;5010979;28;20561;-69
2024/02/16 14:19:10;;;;;;;15.30;14.80;;;;;;;;;;5010797;27;20464;-72
2024/02/16 14:21:37;;;;;;;15.67;15.17;;;;;;;;;;5006682;28;20951;-71
2024/02/16 14:24:05;;;;;;;15.70;15.20;;;;;;;;;;5008305;28;20470;-73
2024/02/16 14:26:32;;;;;;;16.00;15.50;;;;;;;;;;5009314;28;20477;-70